createdAt,value
2023-01-15T00:02:24.897Z,97812.57
2023-01-15T00:04:53.994Z,97811.15
2023-01-15T00:07:22.806Z,97814.02
2023-01-15T00:09:51.952Z,97807.83
2023-01-15T00:12:20.733Z,97806.48
2023-01-15T00:14:49.781Z,97805.75
2023-01-15T00:17:18.514Z,97803.97
2023-01-15T00:19:47.751Z,97804.59
2023-01-15T00:22:16.493Z,97806.39
2023-01-15T00:25:04.585Z,97801.52
2023-01-15T00:27:40.020Z,97805.04
2023-01-15T00:30:14.128Z,97806.55
2023-01-15T00:32:43.883Z,97805.79
2023-01-15T00:35:19.031Z,97810.06
2023-01-15T00:37:49.183Z,97810.41
2023-01-15T00:40:20.316Z,97813.73
2023-01-15T00:42:53.986Z,97818.21
2023-01-15T00:45:24.409Z,97824.44
2023-01-15T00:47:53.608Z,97824.00
2023-01-15T00:50:23.112Z,97818.53
2023-01-15T00:52:52.657Z,97815.14
2023-01-15T00:55:22.124Z,97809.45
2023-01-15T00:57:51.212Z,97808.66
2023-01-15T01:00:20.618Z,97806.23
2023-01-15T01:02:49.521Z,97801.94
2023-01-15T01:05:18.807Z,97801.77
2023-01-15T01:07:47.489Z,97798.85
2023-01-15T01:10:18.279Z,97800.30
2023-01-15T01:12:48.956Z,97796.65
2023-01-15T01:15:20.062Z,97798.67
2023-01-15T01:17:49.390Z,97793.02
2023-01-15T01:20:19.759Z,97786.11
2023-01-15T01:22:50.417Z,97782.48
2023-01-15T01:25:20.058Z,97781.83
2023-01-15T01:27:49.099Z,97781.85
2023-01-15T01:30:20.476Z,97776.02
2023-01-15T01:32:49.621Z,97768.45
2023-01-15T01:35:19.011Z,97767.71
2023-01-15T01:37:54.559Z,97769.10
2023-01-15T01:40:25.093Z,97764.31
2023-01-15T01:42:54.198Z,97760.60
2023-01-15T01:45:28.752Z,97755.99
2023-01-15T01:48:06.504Z,97756.17
2023-01-15T01:50:38.573Z,97748.62
2023-01-15T01:53:13.973Z,97744.98
2023-01-15T01:55:44.117Z,97740.46
2023-01-15T01:58:15.454Z,97738.54
2023-01-15T02:00:49.327Z,97739.52
2023-01-15T02:03:22.353Z,97738.17
2023-01-15T02:05:57.438Z,97739.20
2023-01-15T02:08:28.454Z,97735.70
2023-01-15T02:10:58.911Z,97738.04
2023-01-15T02:13:42.088Z,97734.58
2023-01-15T02:16:15.109Z,97735.02
2023-01-15T02:19:11.320Z,97730.20
2023-01-15T02:21:51.368Z,97732.08
2023-01-15T02:24:38.090Z,97732.07
2023-01-15T02:27:21.141Z,97730.70
2023-01-15T02:30:17.386Z,97730.88
2023-01-15T02:33:48.637Z,97727.27
2023-01-15T02:36:24.355Z,97728.77
2023-01-15T02:38:59.054Z,97722.55
2023-01-15T02:41:39.530Z,97722.36
2023-01-15T02:44:11.423Z,97720.39
2023-01-15T02:46:44.462Z,97714.05
2023-01-15T02:49:22.005Z,97716.31
2023-01-15T02:52:09.296Z,97718.27
2023-01-15T02:54:53.206Z,97720.48
2023-01-15T02:57:26.987Z,97718.07
2023-01-15T03:00:02.515Z,97715.02
2023-01-15T03:02:57.015Z,97712.30
2023-01-15T03:05:34.404Z,97710.64
2023-01-15T03:08:09.096Z,97709.25
2023-01-15T03:10:45.579Z,97705.50
2023-01-15T03:13:45.372Z,97710.78
2023-01-15T03:16:47.824Z,97711.95
2023-01-15T03:19:24.527Z,97712.06
2023-01-15T03:22:29.562Z,97708.96
2023-01-15T03:25:10.879Z,97709.13
2023-01-15T03:27:46.185Z,97712.86
2023-01-15T03:30:23.056Z,97713.88
2023-01-15T03:32:55.789Z,97715.73
2023-01-15T03:35:46.600Z,97711.91
2023-01-15T03:38:23.991Z,97712.06
2023-01-15T03:41:20.379Z,97710.49
2023-01-15T03:44:30.787Z,97709.27
2023-01-15T03:47:22.453Z,97707.36
2023-01-15T03:50:04.434Z,97708.89
2023-01-15T03:53:04.562Z,97706.11
2023-01-15T03:55:53.416Z,97707.25
2023-01-15T03:58:39.113Z,97702.40
2023-01-15T04:01:16.196Z,97705.80
2023-01-15T04:03:48.926Z,97707.53
2023-01-15T04:06:21.064Z,97704.77
2023-01-15T04:08:51.963Z,97704.04
2023-01-15T04:11:26.925Z,97701.66
2023-01-15T04:14:05.747Z,97704.41
2023-01-15T04:17:02.071Z,97701.50
2023-01-15T04:19:32.253Z,97705.05
2023-01-15T04:22:04.737Z,97705.52
2023-01-15T04:24:34.601Z,97706.52
2023-01-15T04:27:04.023Z,97705.11
2023-01-15T04:29:33.441Z,97707.28
2023-01-15T04:32:02.644Z,97709.83
2023-01-15T04:34:35.450Z,97705.02
2023-01-15T04:37:05.666Z,97704.17
2023-01-15T04:39:36.455Z,97704.36
2023-01-15T04:42:25.070Z,97705.48
2023-01-15T04:44:55.268Z,97711.51
2023-01-15T04:47:26.716Z,97709.13
2023-01-15T04:49:56.863Z,97707.23
2023-01-15T04:52:26.580Z,97705.49
2023-01-15T04:54:56.759Z,97705.98
2023-01-15T04:57:26.577Z,97704.58
2023-01-15T04:59:56.626Z,97700.55
2023-01-15T05:02:25.604Z,97699.14
2023-01-15T05:04:55.699Z,97703.52
2023-01-15T05:07:25.332Z,97703.05
2023-01-15T05:09:55.774Z,97707.52
2023-01-15T05:12:25.372Z,97701.52
2023-01-15T05:14:54.789Z,97702.14
2023-01-15T05:17:23.885Z,97705.99
2023-01-15T05:19:53.269Z,97705.45
2023-01-15T05:22:22.358Z,97707.30
2023-01-15T05:24:51.349Z,97707.45
2023-01-15T05:27:20.755Z,97705.08
2023-01-15T05:29:50.063Z,97698.44
2023-01-15T05:32:19.264Z,97697.58
2023-01-15T05:34:48.385Z,97692.94
2023-01-15T05:37:17.958Z,97694.66
2023-01-15T05:39:47.266Z,97693.64
2023-01-15T05:42:16.723Z,97697.71
2023-01-15T05:44:45.550Z,97693.05
2023-01-15T05:47:16.137Z,97690.10
2023-01-15T05:49:45.067Z,97690.58
2023-01-15T05:52:13.668Z,97693.48
2023-01-15T05:54:42.655Z,97693.64
2023-01-15T05:57:13.455Z,97687.42
2023-01-15T05:59:42.850Z,97688.56
2023-01-15T06:02:11.873Z,97686.80
2023-01-15T06:04:40.552Z,97683.80
2023-01-15T06:07:09.247Z,97683.08
2023-01-15T06:09:37.912Z,97682.20
2023-01-15T06:12:06.706Z,97688.00
2023-01-15T06:14:35.614Z,97687.76
2023-01-15T06:17:04.664Z,97687.74
2023-01-15T06:19:33.729Z,97685.69
2023-01-15T06:22:04.197Z,97681.94
2023-01-15T06:24:32.984Z,97683.77
2023-01-15T06:27:01.535Z,97683.30
2023-01-15T06:29:30.406Z,97683.82
2023-01-15T06:31:59.138Z,97684.70
2023-01-15T06:34:27.687Z,97686.55
2023-01-15T06:36:56.543Z,97686.17
2023-01-15T06:39:25.414Z,97684.72
2023-01-15T06:42:12.484Z,97687.18
2023-01-15T06:44:59.678Z,97687.93
2023-01-15T06:47:28.487Z,97687.66
2023-01-15T06:49:58.758Z,97688.96
2023-01-15T06:52:29.935Z,97685.60
2023-01-15T06:54:58.531Z,97684.48
2023-01-15T06:57:27.221Z,97688.75
2023-01-15T06:59:55.979Z,97686.60
2023-01-15T07:02:24.660Z,97686.52
2023-01-15T07:04:53.490Z,97684.07
2023-01-15T07:07:22.345Z,97685.77
2023-01-15T07:09:51.482Z,97684.86
2023-01-15T07:12:20.936Z,97683.67
2023-01-15T07:14:49.530Z,97679.52
2023-01-15T07:17:18.306Z,97680.10
2023-01-15T07:19:47.411Z,97675.23
2023-01-15T07:22:16.221Z,97677.88
2023-01-15T07:24:48.172Z,97676.90
2023-01-15T07:27:16.692Z,97680.88
2023-01-15T07:29:45.222Z,97677.09
2023-01-15T07:32:14.003Z,97671.90
2023-01-15T07:34:42.554Z,97673.55
2023-01-15T07:37:11.243Z,97675.23
2023-01-15T07:39:39.965Z,97673.52
2023-01-15T07:42:29.437Z,97670.72
2023-01-15T07:45:16.548Z,97671.34
2023-01-15T07:48:03.596Z,97669.70
2023-01-15T07:50:32.309Z,97656.96
2023-01-15T07:53:01.036Z,97653.63
2023-01-15T07:55:29.724Z,97657.51
2023-01-15T07:57:58.815Z,97659.95
2023-01-15T08:00:27.425Z,97657.58
2023-01-15T08:02:55.995Z,97655.27
2023-01-15T08:05:24.464Z,97655.21
2023-01-15T08:07:53.238Z,97651.61
2023-01-15T08:10:22.043Z,97652.13
2023-01-15T08:13:09.549Z,97652.43
2023-01-15T08:15:44.247Z,97650.27
2023-01-15T08:18:12.761Z,97648.18
2023-01-15T08:20:41.814Z,97645.71
2023-01-15T08:23:10.872Z,97650.45
2023-01-15T08:25:39.572Z,97643.42
2023-01-15T08:28:08.061Z,97639.95
2023-01-15T08:30:36.831Z,97645.02
2023-01-15T08:33:05.507Z,97645.97
2023-01-15T08:35:34.707Z,97648.66
2023-01-15T08:38:07.696Z,97649.80
2023-01-15T08:40:57.069Z,97648.73
2023-01-15T08:43:31.724Z,97646.61
2023-01-15T08:46:02.795Z,97641.88
2023-01-15T08:48:33.233Z,97638.20
2023-01-15T08:51:07.019Z,97645.67
2023-01-15T08:53:36.462Z,97638.14
2023-01-15T08:56:12.173Z,97634.16
2023-01-15T08:58:40.793Z,97632.16
2023-01-15T09:01:12.493Z,97629.91
2023-01-15T09:03:41.549Z,97628.36
2023-01-15T09:06:14.117Z,97627.05
2023-01-15T09:08:42.904Z,97625.11
2023-01-15T09:11:14.088Z,97621.38
2023-01-15T09:13:44.404Z,97618.06
2023-01-15T09:16:13.412Z,97612.05
2023-01-15T09:18:42.154Z,97609.45
2023-01-15T09:21:11.145Z,97601.59
2023-01-15T09:23:39.875Z,97597.97
2023-01-15T09:39:05.056Z,97586.55
2023-01-15T09:42:05.798Z,97576.77
2023-01-15T09:44:50.373Z,97570.47
2023-01-15T09:47:39.835Z,97557.78
2023-01-15T09:50:23.415Z,97557.85
2023-01-15T09:53:20.213Z,97546.85
2023-01-15T09:55:51.357Z,97545.90
2023-01-15T09:58:23.828Z,97540.56
2023-01-15T10:00:52.771Z,97542.98
2023-01-15T10:03:45.892Z,97539.15
2023-01-15T10:06:48.776Z,97533.40
2023-01-15T10:09:31.723Z,97533.46
2023-01-15T10:12:31.303Z,97531.04
2023-01-15T10:15:21.070Z,97522.56
2023-01-15T10:17:54.210Z,97514.90
2023-01-15T10:21:00.739Z,97513.55
2023-01-15T10:23:48.074Z,97512.95
2023-01-15T10:26:35.787Z,97505.27
2023-01-15T10:29:23.013Z,97500.15
2023-01-15T10:31:57.946Z,97492.45
2023-01-15T10:34:29.290Z,97484.27
2023-01-15T10:37:23.675Z,97483.48
2023-01-15T10:40:30.255Z,97477.23
2023-01-15T10:43:33.511Z,97469.80
2023-01-15T10:46:19.207Z,97470.97
2023-01-15T10:48:57.180Z,97474.54
2023-01-15T10:51:45.790Z,97468.09
2023-01-15T10:54:41.816Z,97466.09
2023-01-15T10:57:36.423Z,97461.73
2023-01-15T11:00:05.929Z,97457.08
2023-01-15T11:02:40.093Z,97450.73
2023-01-15T11:05:21.211Z,97449.27
2023-01-15T11:08:24.746Z,97446.90
2023-01-15T11:10:41.745Z,97448.30
2023-01-15T11:13:45.422Z,97443.92
2023-01-15T11:16:36.139Z,97436.95
2023-01-15T11:19:25.395Z,97435.07
2023-01-15T11:21:54.900Z,97436.19
2023-01-15T11:24:23.403Z,97435.06
2023-01-15T11:26:55.143Z,97435.63
2023-01-15T11:29:34.570Z,97434.10
2023-01-15T11:32:04.342Z,97435.61
2023-01-15T11:34:32.963Z,97432.83
2023-01-15T11:37:03.311Z,97432.96
2023-01-15T11:39:32.668Z,97432.95
2023-01-15T11:42:22.716Z,97427.87
2023-01-15T11:45:12.153Z,97424.94
2023-01-15T11:48:10.231Z,97419.32
2023-01-15T11:50:52.947Z,97421.45
2023-01-15T11:53:34.669Z,97417.36
2023-01-15T11:56:09.157Z,97415.77
2023-01-15T11:58:58.365Z,97408.55
2023-01-15T12:01:35.582Z,97401.80
2023-01-15T12:04:08.523Z,97394.46
2023-01-15T12:06:41.284Z,97384.95
2023-01-15T12:09:31.356Z,97376.98
2023-01-15T12:12:23.902Z,97369.38
2023-01-15T12:15:06.367Z,97366.34
2023-01-15T12:17:44.007Z,97357.42
2023-01-15T12:20:54.492Z,97354.30
2023-01-15T12:23:35.344Z,97344.83
2023-01-15T12:26:18.056Z,97340.25
2023-01-15T12:29:21.422Z,97337.17
2023-01-15T12:31:55.671Z,97327.31
2023-01-15T12:34:30.341Z,97325.08
2023-01-15T12:37:22.844Z,97319.25
2023-01-15T12:40:28.631Z,97317.48
2023-01-15T12:43:16.332Z,97305.56
2023-01-15T12:45:49.926Z,97301.66
2023-01-15T12:48:35.405Z,97293.60
2023-01-15T12:51:06.511Z,97290.16
2023-01-15T12:53:53.210Z,97285.85
2023-01-15T12:56:33.594Z,97278.81
2023-01-15T12:59:13.572Z,97273.59
2023-01-15T13:02:13.007Z,97275.06
2023-01-15T13:04:44.730Z,97273.04
2023-01-15T13:07:40.098Z,97269.17
2023-01-15T13:10:29.615Z,97265.39
2023-01-15T13:13:13.762Z,97265.90
2023-01-15T13:16:10.040Z,97266.86
2023-01-15T13:18:38.808Z,97264.98
2023-01-15T13:21:16.621Z,97261.59
2023-01-15T13:23:57.008Z,97262.63
2023-01-15T13:26:53.221Z,97266.93
2023-01-15T13:29:40.148Z,97259.48
2023-01-15T13:32:30.037Z,97256.02
2023-01-15T13:35:05.119Z,97250.65
2023-01-15T13:37:55.190Z,97247.27
2023-01-15T13:40:39.341Z,97243.60
2023-01-15T13:43:10.145Z,97245.85
2023-01-15T13:45:41.338Z,97242.52
2023-01-15T13:48:20.701Z,97239.23
2023-01-15T13:50:54.969Z,97241.73
2023-01-15T13:53:26.528Z,97239.66
2023-01-15T13:56:08.241Z,97237.18
2023-01-15T13:58:54.526Z,97233.89
2023-01-15T14:01:31.072Z,97227.02
2023-01-15T14:04:10.065Z,97220.27
2023-01-15T14:06:43.724Z,97216.10
2023-01-15T14:09:30.040Z,97209.98
2023-01-15T14:12:18.573Z,97207.90
2023-01-15T14:15:08.135Z,97209.43
2023-01-15T14:18:04.580Z,97208.60
2023-01-15T14:20:55.329Z,97211.02
2023-01-15T14:23:53.875Z,97210.98
2023-01-15T14:26:55.927Z,97216.68
2023-01-15T14:29:30.860Z,97216.09
2023-01-15T14:31:59.704Z,97213.67
2023-01-15T14:34:34.672Z,97205.76
2023-01-15T14:37:24.948Z,97200.29
2023-01-15T14:39:58.856Z,97198.91
2023-01-15T14:42:52.553Z,97200.83
2023-01-15T14:45:30.901Z,97199.05
2023-01-15T14:48:02.325Z,97195.10
2023-01-15T14:50:44.117Z,97191.81
2023-01-15T14:53:15.246Z,97190.98
2023-01-15T14:55:58.581Z,97192.10
2023-01-15T14:58:41.605Z,97197.71
2023-01-15T15:01:35.831Z,97193.86
2023-01-15T15:04:41.027Z,97191.94
2023-01-15T15:07:15.643Z,97193.38
2023-01-15T15:09:48.051Z,97192.64
2023-01-15T15:12:38.217Z,97194.23
2023-01-15T15:15:22.054Z,97199.79
2023-01-15T15:18:09.889Z,97195.10
2023-01-15T15:20:53.625Z,97192.88
2023-01-15T15:23:26.103Z,97186.65
2023-01-15T15:26:03.978Z,97193.23
2023-01-15T15:28:32.591Z,97193.59
2023-01-15T15:31:02.007Z,97187.75
2023-01-15T15:33:39.382Z,97192.92
2023-01-15T15:36:09.606Z,97189.36
2023-01-15T15:38:42.183Z,97187.79
2023-01-15T15:41:13.113Z,97190.41
2023-01-15T15:44:16.415Z,97184.94
2023-01-15T15:47:09.875Z,97185.45
2023-01-15T15:49:40.488Z,97183.20
2023-01-15T15:52:23.390Z,97185.23
2023-01-15T15:55:06.073Z,97188.60
2023-01-15T15:57:36.064Z,97194.39
2023-01-15T16:00:05.256Z,97196.66
2023-01-15T16:02:39.029Z,97194.89
2023-01-15T16:05:31.801Z,97193.30
2023-01-15T16:08:18.137Z,97187.83
2023-01-15T16:10:54.060Z,97182.15
2023-01-15T16:13:27.883Z,97180.55
2023-01-15T16:15:58.585Z,97175.03
2023-01-15T16:18:41.142Z,97174.15
2023-01-15T16:21:12.124Z,97173.15
2023-01-15T16:23:42.884Z,97171.39
2023-01-15T16:26:22.171Z,97175.29
2023-01-15T16:28:55.409Z,97175.69
2023-01-15T16:31:24.540Z,97177.58
2023-01-15T16:33:58.214Z,97179.17
2023-01-15T16:36:28.434Z,97176.88
2023-01-15T16:38:57.326Z,97177.61
2023-01-15T16:41:35.436Z,97173.92
2023-01-15T16:44:06.587Z,97171.33
2023-01-15T16:46:39.488Z,97170.20
2023-01-15T16:49:23.117Z,97172.80
2023-01-15T16:51:53.991Z,97168.01
2023-01-15T16:54:31.247Z,97167.65
2023-01-15T16:57:02.977Z,97165.77
2023-01-15T16:59:32.166Z,97158.50
2023-01-15T17:02:16.952Z,97151.44
2023-01-15T17:04:46.697Z,97148.45
2023-01-15T17:07:18.400Z,97146.90
2023-01-15T17:09:51.797Z,97142.84
2023-01-15T17:12:38.613Z,97144.20
2023-01-15T17:15:20.134Z,97144.48
2023-01-15T17:17:53.286Z,97147.10
2023-01-15T17:20:28.086Z,97141.39
2023-01-15T17:22:57.306Z,97138.66
2023-01-15T17:25:31.334Z,97137.73
2023-01-15T17:28:01.238Z,97140.82
2023-01-15T17:30:32.243Z,97141.31
2023-01-15T17:33:06.595Z,97143.10
2023-01-15T17:35:37.450Z,97136.42
2023-01-15T17:38:07.741Z,97134.17
2023-01-15T17:40:36.336Z,97126.13
2023-01-15T17:43:05.644Z,97119.88
2023-01-15T17:45:34.715Z,97117.51
2023-01-15T17:48:04.224Z,97115.02
2023-01-15T17:50:32.717Z,97109.98
2023-01-15T17:53:02.118Z,97103.11
2023-01-15T17:55:49.733Z,97097.39
2023-01-15T17:58:36.867Z,97094.92
2023-01-15T18:01:34.198Z,97089.36
2023-01-15T18:04:22.057Z,97085.39
2023-01-15T18:06:53.964Z,97082.47
2023-01-15T18:09:24.341Z,97078.31
2023-01-15T18:11:53.242Z,97082.48
2023-01-15T18:14:22.048Z,97084.46
2023-01-15T18:16:50.605Z,97084.74
2023-01-15T18:19:19.300Z,97082.76
2023-01-15T18:21:48.073Z,97083.14
2023-01-15T18:24:17.485Z,97082.84
2023-01-15T18:26:46.164Z,97083.27
2023-01-15T18:29:14.863Z,97086.50
2023-01-15T18:31:43.410Z,97084.63
2023-01-15T18:34:12.022Z,97081.30
2023-01-15T18:36:41.532Z,97076.02
2023-01-15T18:39:13.179Z,97076.52
2023-01-15T18:41:41.756Z,97077.08
2023-01-15T18:44:31.744Z,97075.93
2023-01-15T18:47:03.702Z,97069.79
2023-01-15T18:49:32.596Z,97066.25
2023-01-15T18:52:19.714Z,97064.27
2023-01-15T18:54:48.502Z,97063.95
2023-01-15T18:57:17.190Z,97063.79
2023-01-15T18:59:47.817Z,97061.67
2023-01-15T19:02:17.654Z,97063.86
2023-01-15T19:04:48.501Z,97065.62
2023-01-15T19:07:17.563Z,97061.60
2023-01-15T19:09:46.349Z,97064.92
2023-01-15T19:12:17.328Z,97058.98
2023-01-15T19:15:05.230Z,97060.35
2023-01-15T19:17:52.350Z,97058.65
2023-01-15T19:20:21.234Z,97061.05
2023-01-15T19:22:59.288Z,97056.65
2023-01-15T19:25:29.517Z,97054.52
2023-01-15T19:27:58.765Z,97051.88
2023-01-15T19:30:28.676Z,97047.69
2023-01-15T19:32:57.355Z,97040.31
2023-01-15T19:35:26.045Z,97038.19
2023-01-15T19:37:55.452Z,97038.20
2023-01-15T19:40:25.056Z,97038.63
2023-01-15T19:43:13.642Z,97037.45
2023-01-15T19:46:03.792Z,97041.52
2023-01-15T19:48:52.658Z,97036.42
2023-01-15T19:51:21.544Z,97038.00
2023-01-15T19:53:50.249Z,97030.25
2023-01-15T19:56:19.229Z,97028.23
2023-01-15T19:58:47.706Z,97031.70
2023-01-15T20:01:17.804Z,97027.79
2023-01-15T20:03:46.811Z,97026.65
2023-01-15T20:06:15.393Z,97027.64
2023-01-15T20:08:43.977Z,97029.20
2023-01-15T20:11:12.569Z,97023.10
2023-01-15T20:13:52.199Z,97023.48
2023-01-15T20:16:22.838Z,97022.02
2023-01-15T20:18:53.142Z,97024.82
2023-01-15T20:21:21.753Z,97024.88
2023-01-15T20:23:50.322Z,97021.33
2023-01-15T20:26:19.010Z,97018.66
2023-01-15T20:28:48.008Z,97015.14
2023-01-15T20:31:20.383Z,97013.85
2023-01-15T20:33:49.079Z,97015.48
2023-01-15T20:36:17.659Z,97014.15
2023-01-15T20:38:46.747Z,97015.44
2023-01-15T20:41:34.165Z,97018.80
2023-01-15T20:44:21.384Z,97022.36
2023-01-15T20:46:50.082Z,97023.03
2023-01-15T20:49:28.489Z,97023.98
2023-01-15T20:51:58.133Z,97023.26
2023-01-15T20:54:27.617Z,97023.98
2023-01-15T20:56:56.186Z,97022.29
2023-01-15T20:59:24.763Z,97024.02
2023-01-15T21:01:54.986Z,97024.86
2023-01-15T21:04:23.952Z,97027.23
2023-01-15T21:06:52.529Z,97018.48
2023-01-15T21:09:20.934Z,97016.70
2023-01-15T21:11:49.510Z,97020.02
2023-01-15T21:14:18.100Z,97023.35
2023-01-15T21:16:46.933Z,97023.44
2023-01-15T21:19:16.022Z,97021.29
2023-01-15T21:21:44.781Z,97022.23
2023-01-15T21:24:13.570Z,97020.88
2023-01-15T21:26:42.249Z,97018.52
2023-01-15T21:29:10.830Z,97015.67
2023-01-15T21:31:40.076Z,97009.58
2023-01-15T21:34:09.117Z,97006.51
2023-01-15T21:36:38.220Z,97008.09
2023-01-15T21:39:06.807Z,97009.83
2023-01-15T21:41:54.635Z,97006.32
2023-01-15T21:44:32.555Z,97002.28
2023-01-15T21:47:12.953Z,97005.10
2023-01-15T21:49:42.507Z,97004.50
2023-01-15T21:52:18.877Z,97000.50
2023-01-15T21:54:48.592Z,96998.91
2023-01-15T21:57:19.325Z,96998.98
2023-01-15T21:59:47.899Z,97001.77
2023-01-15T22:02:20.553Z,97003.18
2023-01-15T22:04:49.572Z,97007.47
2023-01-15T22:07:19.284Z,97007.98
2023-01-15T22:09:48.291Z,97005.58
2023-01-15T22:12:17.474Z,97009.95
2023-01-15T22:14:46.361Z,97011.30
2023-01-15T22:17:15.049Z,97007.53
2023-01-15T22:19:44.053Z,97004.78
2023-01-15T22:22:12.828Z,97006.30
2023-01-15T22:24:41.712Z,97000.43
2023-01-15T22:27:15.325Z,97000.52
2023-01-15T22:29:44.317Z,96996.46
2023-01-15T22:32:14.740Z,96997.45
2023-01-15T22:34:43.840Z,96990.52
2023-01-15T22:37:15.058Z,96981.48
2023-01-15T22:39:43.665Z,96981.13
2023-01-15T22:42:25.549Z,96980.77
2023-01-15T22:44:56.388Z,96981.95
2023-01-15T22:47:25.178Z,96976.84
2023-01-15T22:49:54.090Z,96974.27
2023-01-15T22:52:25.652Z,96971.67
2023-01-15T22:54:54.722Z,96969.10
2023-01-15T22:57:23.922Z,96972.85
2023-01-15T22:59:52.822Z,96973.35
2023-01-15T23:02:41.581Z,96973.17
2023-01-15T23:05:12.062Z,96971.46
2023-01-15T23:07:41.705Z,96963.09
2023-01-15T23:10:12.572Z,96955.85
2023-01-15T23:12:42.673Z,96954.10
2023-01-15T23:15:13.652Z,96947.91
2023-01-15T23:17:44.430Z,96945.20
2023-01-15T23:20:14.654Z,96943.36
2023-01-15T23:22:44.423Z,96940.67
2023-01-15T23:25:13.567Z,96935.45
2023-01-15T23:27:42.964Z,96933.31
2023-01-15T23:30:12.779Z,96932.12
2023-01-15T23:32:42.662Z,96929.04
2023-01-15T23:35:12.108Z,96926.23
2023-01-15T23:37:40.903Z,96926.30
2023-01-15T23:40:11.455Z,96923.98
2023-01-15T23:42:59.554Z,96923.34
2023-01-15T23:45:47.283Z,96921.34
2023-01-15T23:48:16.991Z,96917.95
2023-01-15T23:50:45.682Z,96919.41
2023-01-15T23:53:14.985Z,96917.48
2023-01-15T23:55:43.871Z,96917.41
2023-01-15T23:58:13.299Z,96916.81
